Cercs-Sant Jordi





Hora UTC 05:35
Temperatura 12.3 ºC
Humedad 91.0 %
Pluja 0.0 mm
Velocidad viento 2.7 km/h
Dirección viento NW
Radiación solar 73.5 W/m²

Datos diarios 2020-05-30



Hora UTC (invierno +1h; verano +2h)
Temperatura (ºC) Humedad (%) Velocidad viento (km/h) Precipitación (mm) Radiación solar (W/m²)
Hora UTC Aire Humedad Vel. Dir. Vel. Max Dir. Intent. máx 5 min. Rad. Sol.
00:05 13.2 89.2 1.7 S 1.7 SE 0.0 0.1
00:10 13.1 89.5 0.8 W 6.1 WSW 0.0 0.1
00:15 13.0 90.4 3.4 WSW 6.1 SW 0.0 0.1
00:20 13.0 90.7 0.1 SW 3.4 SW 0.0 0.1
00:25 13.0 90.3 0.9 W 6.1 WNW 0.0 0.1
00:30 13.1 88.2 1.6 WNW 6.1 WSW 0.0 0.1
00:35 13.3 86.7 1.0 S 6.1 SSE 0.0 0.1
00:40 13.5 86.7 0.5 SSE 6.1 SSW 0.0 0.1
00:45 13.1 87.2 0.7 S 6.1 S 0.0 0.1
00:50 13.1 88.9 0.3 NNW 3.4 NE 0.0 0.1
00:55 12.9 89.9 0.9 SSW 6.1 SSW 0.0 0.1
01:00 12.8 90.3 0.4 N 6.1 N 0.0 0.1
01:05 12.8 89.9 0.8 W 8.8 N 0.0 0.1
01:10 12.7 90.2 2.3 WSW 8.8 WNW 0.0 0.1
01:15 12.8 91.3 3.5 NNW 8.8 WNW 0.0 0.1
01:20 12.9 89.9 1.8 WNW 11.5 WNW 0.0 0.1
01:25 12.7 89.0 1.8 S 8.8 S 0.0 0.1
01:30 12.6 90.1 0.8 SSW 6.1 SSW 0.0 0.1
01:35 12.5 91.1 1.3 NNE 6.1 NNE 0.0 0.1
01:40 12.6 90.3 1.9 NNE 6.1 N 0.0 0.1
01:45 12.8 89.9 1.7 NW 6.1 NW 0.0 0.1
01:50 12.7 89.8 1.1 SW 6.1 SW 0.0 0.2
01:55 12.4 90.7 0.4 SW 3.4 WNW 0.0 0.1
02:00 12.3 90.9 1.1 N 6.1 NNW 0.0 0.1
02:05 12.5 90.2 0.3 NNE 3.4 SW 0.0 0.1
02:10 12.5 89.9 0.8 NNW 6.1 N 0.0 0.1
02:15 12.5 89.7 2.2 NW 8.8 W 0.0 0.1
02:20 12.5 89.6 2.0 WNW 6.1 W 0.0 0.1
02:25 12.4 89.7 1.9 NW 11.5 NW 0.0 0.1
02:30 12.4 88.8 0.1 W 3.4 W 0.0 0.1
02:35 12.4 89.3 0.7 NE 8.8 ENE 0.0 0.1
02:40 12.4 89.4 0.5 SSW 3.4 SSW 0.0 0.1
02:45 12.2 90.2 0.0 NNE 0.0 SW 0.0 0.1
02:50 12.2 90.7 0.8 W 6.1 W 0.0 0.1
02:55 12.2 90.2 1.1 WNW 6.1 NW 0.0 0.1
03:00 12.2 90.2 0.0 NNE 0.0 WSW 0.0 0.1
03:05 12.1 90.7 0.0 NNE 0.0 WSW 0.0 0.1
03:10 12.0 91.5 1.5 SSW 6.1 SSW 0.0 0.1
03:15 11.8 91.6 0.7 SW 6.1 W 0.0 0.1
03:20 11.7 91.7 2.7 SSW 8.8 SSW 0.0 0.1
03:25 11.7 92.1 1.6 WNW 6.1 W 0.0 0.1
03:30 11.9 91.5 0.6 NNE 6.1 NE 0.0 0.1
03:35 12.2 91.7 5.9 NNW 14.2 NE 0.0 0.1
03:40 12.3 91.5 4.4 NW 11.5 NW 0.0 0.1
03:45 12.2 91.2 1.6 W 6.1 NNE 0.0 0.1
03:50 11.9 91.3 0.4 WNW 3.4 WSW 0.0 0.1
03:55 12.0 92.0 2.4 WNW 6.1 NW 0.0 0.2
04:00 12.0 92.0 0.3 ENE 3.4 E 0.0 0.4
04:05 12.0 92.0 1.6 NNW 8.8 NNW 0.0 0.8
04:10 12.0 92.2 2.1 NW 6.1 WNW 0.0 1.5
04:15 11.8 91.9 0.7 SW 3.4 SW 0.0 2.4
04:20 11.6 92.5 0.0 NNE 0.0 SSW 0.0 3.5
04:25 11.5 93.2 0.0 NNE 0.0 WSW 0.0 5.7
04:30 11.5 93.6 0.0 NNE 0.0 WNW 0.0 8.0
04:35 11.6 93.5 0.1 NE 3.4 NE 0.0 9.7
04:40 11.7 93.2 1.0 N 8.8 N 0.0 11.8
04:45 11.7 92.5 0.9 WNW 8.8 NW 0.0 14.8
04:50 11.5 92.7 1.9 WSW 8.8 WNW 0.0 18.0
04:55 11.5 93.2 1.1 N 6.1 NNW 0.0 21.5
05:00 11.6 92.9 1.7 NW 8.8 NW 0.0 25.8
05:05 11.8 92.3 4.1 NW 11.5 NNW 0.0 29.1
05:10 11.9 91.8 2.3 W 8.8 NNW 0.0 32.4
05:15 11.8 91.5 0.6 WSW 3.4 WSW 0.0 41.1
05:20 12.0 91.5 1.5 NNE 6.1 NNE 0.0 52.7
05:25 12.2 91.4 3.0 NNE 11.5 NNE 0.0 55.3
05:30 12.2 91.6 0.6 N 6.1 N 0.0 49.6
05:35 12.3 91.0 2.7 NW 11.5 NNW 0.0 73.5
Máxima 13.5 93.6 5.9 NNW 14.2 NE 0.0 73.5
Mínima 11.4 86.7
Total 0.0